sensor_id;sensor_type;location;lat;lon;timestamp;P1;durP1;ratioP1;P2;durP2;ratioP2
22705;SDS011;11520;51.198;4.468;2023-02-08T00:00:04;34.05;;;20.45;;
22705;SDS011;11520;51.198;4.468;2023-02-08T00:02:30;37.00;;;21.73;;
22705;SDS011;11520;51.198;4.468;2023-02-08T00:04:56;36.40;;;22.05;;
22705;SDS011;11520;51.198;4.468;2023-02-08T00:07:23;34.50;;;21.95;;
22705;SDS011;11520;51.198;4.468;2023-02-08T00:09:49;33.78;;;21.40;;
22705;SDS011;11520;51.198;4.468;2023-02-08T00:12:15;38.22;;;21.98;;
22705;SDS011;11520;51.198;4.468;2023-02-08T00:14:42;40.13;;;22.38;;
22705;SDS011;11520;51.198;4.468;2023-02-08T00:17:08;35.95;;;22.05;;
22705;SDS011;11520;51.198;4.468;2023-02-08T00:19:35;40.28;;;22.90;;
22705;SDS011;11520;51.198;4.468;2023-02-08T00:22:01;37.47;;;22.33;;
22705;SDS011;11520;51.198;4.468;2023-02-08T00:24:27;34.85;;;21.65;;
22705;SDS011;11520;51.198;4.468;2023-02-08T00:26:53;34.70;;;21.27;;
22705;SDS011;11520;51.198;4.468;2023-02-08T00:29:20;40.35;;;23.20;;
22705;SDS011;11520;51.198;4.468;2023-02-08T00:31:46;36.65;;;22.27;;
22705;SDS011;11520;51.198;4.468;2023-02-08T00:34:12;33.28;;;20.35;;
22705;SDS011;11520;51.198;4.468;2023-02-08T00:39:12;34.95;;;21.95;;
22705;SDS011;11520;51.198;4.468;2023-02-08T00:41:38;36.80;;;21.80;;
22705;SDS011;11520;51.198;4.468;2023-02-08T00:44:04;38.13;;;22.95;;
22705;SDS011;11520;51.198;4.468;2023-02-08T00:46:31;39.85;;;23.13;;
22705;SDS011;11520;51.198;4.468;2023-02-08T00:48:58;40.65;;;23.10;;
22705;SDS011;11520;51.198;4.468;2023-02-08T00:51:25;41.45;;;23.10;;
22705;SDS011;11520;51.198;4.468;2023-02-08T00:53:51;38.30;;;23.05;;
22705;SDS011;11520;51.198;4.468;2023-02-08T00:56:19;36.70;;;21.60;;
22705;SDS011;11520;51.198;4.468;2023-02-08T00:58:44;37.65;;;22.50;;
22705;SDS011;11520;51.198;4.468;2023-02-08T01:01:11;39.88;;;22.83;;
22705;SDS011;11520;51.198;4.468;2023-02-08T01:03:38;32.00;;;20.90;;
22705;SDS011;11520;51.198;4.468;2023-02-08T01:06:05;36.42;;;22.70;;
22705;SDS011;11520;51.198;4.468;2023-02-08T01:08:33;39.35;;;24.08;;
22705;SDS011;11520;51.198;4.468;2023-02-08T01:11:03;43.95;;;23.05;;
22705;SDS011;11520;51.198;4.468;2023-02-08T01:13:30;35.13;;;22.20;;
22705;SDS011;11520;51.198;4.468;2023-02-08T01:16:19;34.90;;;22.20;;
22705;SDS011;11520;51.198;4.468;2023-02-08T01:18:45;38.45;;;22.08;;
22705;SDS011;11520;51.198;4.468;2023-02-08T01:21:14;33.22;;;21.02;;
22705;SDS011;11520;51.198;4.468;2023-02-08T01:23:43;38.65;;;22.08;;
22705;SDS011;11520;51.198;4.468;2023-02-08T01:26:10;36.40;;;23.77;;
22705;SDS011;11520;51.198;4.468;2023-02-08T01:28:37;39.60;;;22.38;;
22705;SDS011;11520;51.198;4.468;2023-02-08T01:31:08;43.42;;;24.42;;
22705;SDS011;11520;51.198;4.468;2023-02-08T01:33:35;36.70;;;22.00;;
22705;SDS011;11520;51.198;4.468;2023-02-08T01:36:01;37.75;;;23.48;;
22705;SDS011;11520;51.198;4.468;2023-02-08T01:38:28;38.80;;;22.98;;
22705;SDS011;11520;51.198;4.468;2023-02-08T01:40:53;36.70;;;21.90;;
22705;SDS011;11520;51.198;4.468;2023-02-08T01:43:22;36.90;;;22.52;;
22705;SDS011;11520;51.198;4.468;2023-02-08T01:45:50;42.83;;;23.75;;
22705;SDS011;11520;51.198;4.468;2023-02-08T01:48:21;38.83;;;23.58;;
22705;SDS011;11520;51.198;4.468;2023-02-08T01:53:21;38.72;;;22.60;;
22705;SDS011;11520;51.198;4.468;2023-02-08T01:55:50;35.53;;;23.33;;
22705;SDS011;11520;51.198;4.468;2023-02-08T01:58:19;37.05;;;23.42;;
22705;SDS011;11520;51.198;4.468;2023-02-08T02:00:50;40.38;;;22.85;;
22705;SDS011;11520;51.198;4.468;2023-02-08T02:03:16;39.90;;;24.45;;
22705;SDS011;11520;51.198;4.468;2023-02-08T02:05:46;38.75;;;23.27;;
22705;SDS011;11520;51.198;4.468;2023-02-08T02:08:16;41.22;;;23.30;;
22705;SDS011;11520;51.198;4.468;2023-02-08T02:10:42;39.05;;;22.95;;
22705;SDS011;11520;51.198;4.468;2023-02-08T02:13:13;42.35;;;23.60;;
22705;SDS011;11520;51.198;4.468;2023-02-08T02:15:43;41.85;;;24.58;;
22705;SDS011;11520;51.198;4.468;2023-02-08T02:18:11;39.47;;;23.13;;
22705;SDS011;11520;51.198;4.468;2023-02-08T02:32:36;37.38;;;22.40;;
22705;SDS011;11520;51.198;4.468;2023-02-08T02:37:45;34.90;;;22.00;;
22705;SDS011;11520;51.198;4.468;2023-02-08T02:43:11;38.80;;;23.10;;
22705;SDS011;11520;51.198;4.468;2023-02-08T02:49:05;34.00;;;21.33;;
22705;SDS011;11520;51.198;4.468;2023-02-08T02:52:01;35.90;;;22.05;;
22705;SDS011;11520;51.198;4.468;2023-02-08T02:54:34;40.05;;;22.70;;
22705;SDS011;11520;51.198;4.468;2023-02-08T02:57:13;35.80;;;21.88;;
22705;SDS011;11520;51.198;4.468;2023-02-08T02:59:42;32.85;;;21.30;;
22705;SDS011;11520;51.198;4.468;2023-02-08T03:02:10;36.33;;;21.67;;
22705;SDS011;11520;51.198;4.468;2023-02-08T03:18:24;33.33;;;21.17;;
22705;SDS011;11520;51.198;4.468;2023-02-08T03:23:29;37.72;;;22.23;;
22705;SDS011;11520;51.198;4.468;2023-02-08T03:26:05;38.75;;;22.60;;
22705;SDS011;11520;51.198;4.468;2023-02-08T03:29:25;33.70;;;20.75;;
22705;SDS011;11520;51.198;4.468;2023-02-08T03:34:40;40.92;;;22.05;;
22705;SDS011;11520;51.198;4.468;2023-02-08T03:37:27;35.38;;;21.63;;
22705;SDS011;11520;51.198;4.468;2023-02-08T03:40:02;32.92;;;20.77;;
22705;SDS011;11520;51.198;4.468;2023-02-08T03:42:31;37.60;;;22.13;;
22705;SDS011;11520;51.198;4.468;2023-02-08T03:48:20;38.25;;;22.40;;
22705;SDS011;11520;51.198;4.468;2023-02-08T03:50:51;36.08;;;22.27;;
22705;SDS011;11520;51.198;4.468;2023-02-08T03:53:20;35.45;;;21.20;;
22705;SDS011;11520;51.198;4.468;2023-02-08T03:55:48;34.65;;;21.77;;
22705;SDS011;11520;51.198;4.468;2023-02-08T03:58:38;37.53;;;22.60;;
22705;SDS011;11520;51.198;4.468;2023-02-08T04:01:24;34.97;;;21.38;;
22705;SDS011;11520;51.198;4.468;2023-02-08T04:03:54;36.80;;;21.35;;
22705;SDS011;11520;51.198;4.468;2023-02-08T04:06:21;35.00;;;21.90;;
22705;SDS011;11520;51.198;4.468;2023-02-08T04:08:47;40.90;;;22.13;;
22705;SDS011;11520;51.198;4.468;2023-02-08T04:11:13;40.63;;;23.75;;
22705;SDS011;11520;51.198;4.468;2023-02-08T04:13:39;38.88;;;23.02;;
22705;SDS011;11520;51.198;4.468;2023-02-08T04:16:05;42.17;;;22.73;;
22705;SDS011;11520;51.198;4.468;2023-02-08T04:18:32;43.08;;;22.92;;
22705;SDS011;11520;51.198;4.468;2023-02-08T04:23:27;39.30;;;23.00;;
22705;SDS011;11520;51.198;4.468;2023-02-08T04:25:52;35.95;;;22.38;;
22705;SDS011;11520;51.198;4.468;2023-02-08T04:28:18;40.35;;;23.00;;
22705;SDS011;11520;51.198;4.468;2023-02-08T04:30:44;41.72;;;25.27;;
22705;SDS011;11520;51.198;4.468;2023-02-08T04:33:09;35.97;;;23.05;;
22705;SDS011;11520;51.198;4.468;2023-02-08T04:35:37;39.42;;;23.38;;
22705;SDS011;11520;51.198;4.468;2023-02-08T04:38:02;39.75;;;23.35;;
22705;SDS011;11520;51.198;4.468;2023-02-08T04:40:28;38.15;;;23.08;;
22705;SDS011;11520;51.198;4.468;2023-02-08T04:42:55;39.60;;;23.27;;
22705;SDS011;11520;51.198;4.468;2023-02-08T04:45:20;41.28;;;24.73;;
22705;SDS011;11520;51.198;4.468;2023-02-08T04:47:46;41.47;;;24.15;;
22705;SDS011;11520;51.198;4.468;2023-02-08T04:50:13;40.03;;;22.98;;
22705;SDS011;11520;51.198;4.468;2023-02-08T04:52:38;39.35;;;23.63;;
22705;SDS011;11520;51.198;4.468;2023-02-08T04:55:04;38.65;;;22.70;;
22705;SDS011;11520;51.198;4.468;2023-02-08T04:57:30;40.20;;;22.92;;
22705;SDS011;11520;51.198;4.468;2023-02-08T04:59:57;41.67;;;23.90;;
22705;SDS011;11520;51.198;4.468;2023-02-08T05:02:24;42.55;;;24.02;;
22705;SDS011;11520;51.198;4.468;2023-02-08T05:04:51;39.28;;;24.17;;
22705;SDS011;11520;51.198;4.468;2023-02-08T05:07:17;40.92;;;24.63;;
22705;SDS011;11520;51.198;4.468;2023-02-08T05:09:43;37.72;;;23.25;;
22705;SDS011;11520;51.198;4.468;2023-02-08T05:12:09;36.22;;;23.23;;
22705;SDS011;11520;51.198;4.468;2023-02-08T05:14:34;41.38;;;24.50;;
22705;SDS011;11520;51.198;4.468;2023-02-08T05:17:00;41.13;;;23.33;;
22705;SDS011;11520;51.198;4.468;2023-02-08T05:19:26;42.17;;;24.20;;
22705;SDS011;11520;51.198;4.468;2023-02-08T05:21:52;38.08;;;24.08;;
22705;SDS011;11520;51.198;4.468;2023-02-08T05:24:19;41.58;;;24.30;;
22705;SDS011;11520;51.198;4.468;2023-02-08T05:26:44;38.33;;;23.38;;
22705;SDS011;11520;51.198;4.468;2023-02-08T05:29:11;36.53;;;22.50;;
22705;SDS011;11520;51.198;4.468;2023-02-08T05:31:40;41.15;;;24.02;;
22705;SDS011;11520;51.198;4.468;2023-02-08T05:34:06;40.20;;;24.20;;
22705;SDS011;11520;51.198;4.468;2023-02-08T05:36:35;41.28;;;23.42;;
22705;SDS011;11520;51.198;4.468;2023-02-08T05:39:03;36.22;;;22.65;;
22705;SDS011;11520;51.198;4.468;2023-02-08T05:41:29;37.53;;;23.83;;
22705;SDS011;11520;51.198;4.468;2023-02-08T05:43:55;43.50;;;24.65;;
22705;SDS011;11520;51.198;4.468;2023-02-08T05:46:21;42.33;;;23.80;;
22705;SDS011;11520;51.198;4.468;2023-02-08T05:48:50;40.30;;;22.60;;
22705;SDS011;11520;51.198;4.468;2023-02-08T05:51:15;37.70;;;23.10;;
22705;SDS011;11520;51.198;4.468;2023-02-08T05:53:44;40.22;;;22.10;;
22705;SDS011;11520;51.198;4.468;2023-02-08T05:56:16;40.33;;;23.27;;
22705;SDS011;11520;51.198;4.468;2023-02-08T05:58:42;38.05;;;24.13;;
22705;SDS011;11520;51.198;4.468;2023-02-08T06:01:11;38.80;;;23.15;;
22705;SDS011;11520;51.198;4.468;2023-02-08T06:03:42;37.55;;;22.45;;
22705;SDS011;11520;51.198;4.468;2023-02-08T06:06:09;42.88;;;23.92;;
22705;SDS011;11520;51.198;4.468;2023-02-08T06:08:39;44.15;;;24.00;;
22705;SDS011;11520;51.198;4.468;2023-02-08T06:11:13;37.47;;;22.83;;
22705;SDS011;11520;51.198;4.468;2023-02-08T06:13:39;37.13;;;22.63;;
22705;SDS011;11520;51.198;4.468;2023-02-08T06:16:22;38.38;;;22.65;;
22705;SDS011;11520;51.198;4.468;2023-02-08T06:21:25;48.92;;;23.65;;
22705;SDS011;11520;51.198;4.468;2023-02-08T06:24:21;38.90;;;23.50;;
22705;SDS011;11520;51.198;4.468;2023-02-08T06:29:54;41.20;;;23.48;;
22705;SDS011;11520;51.198;4.468;2023-02-08T06:35:29;50.40;;;25.02;;
22705;SDS011;11520;51.198;4.468;2023-02-08T06:40:33;40.40;;;23.20;;
22705;SDS011;11520;51.198;4.468;2023-02-08T06:43:28;40.70;;;24.55;;
22705;SDS011;11520;51.198;4.468;2023-02-08T06:46:26;37.88;;;23.10;;
22705;SDS011;11520;51.198;4.468;2023-02-08T06:49:19;44.03;;;24.27;;
22705;SDS011;11520;51.198;4.468;2023-02-08T06:52:24;41.08;;;23.60;;
22705;SDS011;11520;51.198;4.468;2023-02-08T06:54:50;39.22;;;23.95;;
22705;SDS011;11520;51.198;4.468;2023-02-08T06:57:16;42.92;;;23.77;;
22705;SDS011;11520;51.198;4.468;2023-02-08T07:02:37;40.03;;;23.42;;
22705;SDS011;11520;51.198;4.468;2023-02-08T07:05:04;41.92;;;21.80;;
22705;SDS011;11520;51.198;4.468;2023-02-08T07:07:32;41.90;;;24.23;;
22705;SDS011;11520;51.198;4.468;2023-02-08T07:10:18;39.75;;;23.20;;
22705;SDS011;11520;51.198;4.468;2023-02-08T07:12:45;39.80;;;23.52;;
22705;SDS011;11520;51.198;4.468;2023-02-08T07:15:11;41.30;;;24.38;;
22705;SDS011;11520;51.198;4.468;2023-02-08T07:17:37;43.17;;;24.25;;
22705;SDS011;11520;51.198;4.468;2023-02-08T07:20:03;41.20;;;24.10;;
22705;SDS011;11520;51.198;4.468;2023-02-08T07:22:32;39.83;;;24.65;;
22705;SDS011;11520;51.198;4.468;2023-02-08T07:27:32;47.00;;;24.92;;
22705;SDS011;11520;51.198;4.468;2023-02-08T07:29:59;43.25;;;24.05;;
22705;SDS011;11520;51.198;4.468;2023-02-08T07:32:26;37.72;;;23.35;;
22705;SDS011;11520;51.198;4.468;2023-02-08T07:34:53;42.72;;;22.98;;
22705;SDS011;11520;51.198;4.468;2023-02-08T07:37:20;43.08;;;25.10;;
22705;SDS011;11520;51.198;4.468;2023-02-08T07:39:46;45.50;;;25.85;;
22705;SDS011;11520;51.198;4.468;2023-02-08T07:45:08;41.30;;;23.85;;
22705;SDS011;11520;51.198;4.468;2023-02-08T07:47:36;40.00;;;23.42;;
22705;SDS011;11520;51.198;4.468;2023-02-08T07:52:36;38.20;;;22.45;;
22705;SDS011;11520;51.198;4.468;2023-02-08T07:55:05;35.67;;;21.48;;
22705;SDS011;11520;51.198;4.468;2023-02-08T08:00:02;45.40;;;23.92;;
22705;SDS011;11520;51.198;4.468;2023-02-08T08:02:52;40.50;;;23.10;;
22705;SDS011;11520;51.198;4.468;2023-02-08T08:05:26;37.05;;;22.80;;
22705;SDS011;11520;51.198;4.468;2023-02-08T08:15:34;37.53;;;23.65;;
22705;SDS011;11520;51.198;4.468;2023-02-08T08:18:09;39.88;;;23.10;;
22705;SDS011;11520;51.198;4.468;2023-02-08T08:25:36;37.45;;;22.65;;
22705;SDS011;11520;51.198;4.468;2023-02-08T08:28:05;38.53;;;23.27;;
22705;SDS011;11520;51.198;4.468;2023-02-08T08:33:08;34.53;;;20.70;;
22705;SDS011;11520;51.198;4.468;2023-02-08T08:36:02;36.20;;;21.83;;
22705;SDS011;11520;51.198;4.468;2023-02-08T08:46:38;29.20;;;17.58;;
22705;SDS011;11520;51.198;4.468;2023-02-08T08:53:14;24.77;;;15.82;;
22705;SDS011;11520;51.198;4.468;2023-02-08T09:02:05;26.13;;;15.07;;
22705;SDS011;11520;51.198;4.468;2023-02-08T09:05:15;23.85;;;14.73;;
22705;SDS011;11520;51.198;4.468;2023-02-08T09:08:42;31.80;;;15.73;;
22705;SDS011;11520;51.198;4.468;2023-02-08T09:11:37;24.48;;;14.80;;
22705;SDS011;11520;51.198;4.468;2023-02-08T09:14:34;22.65;;;14.07;;
22705;SDS011;11520;51.198;4.468;2023-02-08T09:17:06;22.50;;;13.80;;
22705;SDS011;11520;51.198;4.468;2023-02-08T09:23:06;22.17;;;13.35;;
22705;SDS011;11520;51.198;4.468;2023-02-08T09:26:17;24.70;;;13.77;;
22705;SDS011;11520;51.198;4.468;2023-02-08T09:29:15;21.05;;;13.45;;
22705;SDS011;11520;51.198;4.468;2023-02-08T09:32:17;24.58;;;14.35;;
22705;SDS011;11520;51.198;4.468;2023-02-08T09:38:23;25.00;;;14.23;;
22705;SDS011;11520;51.198;4.468;2023-02-08T09:48:28;23.80;;;12.38;;
22705;SDS011;11520;51.198;4.468;2023-02-08T09:51:35;22.85;;;12.18;;
22705;SDS011;11520;51.198;4.468;2023-02-08T09:54:44;19.45;;;11.18;;
22705;SDS011;11520;51.198;4.468;2023-02-08T09:57:51;22.98;;;12.13;;
22705;SDS011;11520;51.198;4.468;2023-02-08T10:07:31;18.58;;;11.52;;
22705;SDS011;11520;51.198;4.468;2023-02-08T10:10:06;14.38;;;9.20;;
22705;SDS011;11520;51.198;4.468;2023-02-08T10:12:46;18.50;;;11.13;;
22705;SDS011;11520;51.198;4.468;2023-02-08T10:18:36;15.73;;;10.30;;
22705;SDS011;11520;51.198;4.468;2023-02-08T10:21:47;15.65;;;10.48;;
22705;SDS011;11520;51.198;4.468;2023-02-08T10:39:29;15.35;;;9.70;;
22705;SDS011;11520;51.198;4.468;2023-02-08T10:42:18;12.13;;;9.50;;
22705;SDS011;11520;51.198;4.468;2023-02-08T10:44:53;12.27;;;9.05;;
22705;SDS011;11520;51.198;4.468;2023-02-08T10:47:52;9.85;;;7.55;;
22705;SDS011;11520;51.198;4.468;2023-02-08T10:50:31;12.70;;;8.80;;
22705;SDS011;11520;51.198;4.468;2023-02-08T10:53:21;15.18;;;9.20;;
22705;SDS011;11520;51.198;4.468;2023-02-08T10:55:56;9.98;;;7.43;;
22705;SDS011;11520;51.198;4.468;2023-02-08T11:03:59;10.15;;;8.15;;
22705;SDS011;11520;51.198;4.468;2023-02-08T11:06:34;11.68;;;8.52;;
22705;SDS011;11520;51.198;4.468;2023-02-08T11:12:20;12.73;;;9.18;;
22705;SDS011;11520;51.198;4.468;2023-02-08T11:14:51;10.65;;;7.60;;
22705;SDS011;11520;51.198;4.468;2023-02-08T11:17:30;10.02;;;7.70;;
22705;SDS011;11520;51.198;4.468;2023-02-08T11:20:04;8.95;;;6.57;;
22705;SDS011;11520;51.198;4.468;2023-02-08T11:59:21;9.15;;;6.53;;
22705;SDS011;11520;51.198;4.468;2023-02-08T12:01:55;9.75;;;6.68;;
22705;SDS011;11520;51.198;4.468;2023-02-08T12:04:41;7.38;;;5.68;;
22705;SDS011;11520;51.198;4.468;2023-02-08T12:19:37;9.02;;;5.50;;
22705;SDS011;11520;51.198;4.468;2023-02-08T12:22:24;10.68;;;5.90;;
22705;SDS011;11520;51.198;4.468;2023-02-08T12:28:24;7.15;;;4.90;;
22705;SDS011;11520;51.198;4.468;2023-02-08T12:34:26;5.78;;;4.85;;
22705;SDS011;11520;51.198;4.468;2023-02-08T12:37:12;7.07;;;4.95;;
22705;SDS011;11520;51.198;4.468;2023-02-08T13:13:33;6.80;;;3.47;;
22705;SDS011;11520;51.198;4.468;2023-02-08T13:16:34;4.63;;;2.97;;
22705;SDS011;11520;51.198;4.468;2023-02-08T13:21:55;5.38;;;3.55;;
22705;SDS011;11520;51.198;4.468;2023-02-08T13:29:21;4.50;;;3.57;;
22705;SDS011;11520;51.198;4.468;2023-02-08T14:21:25;7.47;;;3.00;;
22705;SDS011;11520;51.198;4.468;2023-02-08T14:25:07;6.22;;;3.20;;
22705;SDS011;11520;51.198;4.468;2023-02-08T14:30:42;5.38;;;3.03;;
22705;SDS011;11520;51.198;4.468;2023-02-08T14:50:20;5.15;;;3.40;;
22705;SDS011;11520;51.198;4.468;2023-02-08T14:59:12;5.30;;;3.55;;
22705;SDS011;11520;51.198;4.468;2023-02-08T15:02:37;11.30;;;3.50;;
22705;SDS011;11520;51.198;4.468;2023-02-08T15:17:20;5.45;;;3.13;;
22705;SDS011;11520;51.198;4.468;2023-02-08T15:20:27;6.57;;;3.10;;
22705;SDS011;11520;51.198;4.468;2023-02-08T15:24:21;4.93;;;2.90;;
22705;SDS011;11520;51.198;4.468;2023-02-08T15:27:29;4.18;;;2.58;;
22705;SDS011;11520;51.198;4.468;2023-02-08T15:30:39;4.40;;;2.97;;
22705;SDS011;11520;51.198;4.468;2023-02-08T15:39:10;5.65;;;2.95;;
22705;SDS011;11520;51.198;4.468;2023-02-08T15:42:19;5.93;;;3.40;;
22705;SDS011;11520;51.198;4.468;2023-02-08T15:44:48;5.50;;;3.35;;
22705;SDS011;11520;51.198;4.468;2023-02-08T15:47:19;6.63;;;3.17;;
22705;SDS011;11520;51.198;4.468;2023-02-08T15:49:53;7.85;;;3.35;;
22705;SDS011;11520;51.198;4.468;2023-02-08T15:52:24;5.13;;;3.33;;
22705;SDS011;11520;51.198;4.468;2023-02-08T15:54:52;5.75;;;3.10;;
22705;SDS011;11520;51.198;4.468;2023-02-08T16:00:13;5.95;;;2.92;;
22705;SDS011;11520;51.198;4.468;2023-02-08T16:02:48;4.13;;;2.83;;
22705;SDS011;11520;51.198;4.468;2023-02-08T16:05:28;7.38;;;3.00;;
22705;SDS011;11520;51.198;4.468;2023-02-08T16:07:57;4.78;;;2.63;;
22705;SDS011;11520;51.198;4.468;2023-02-08T16:13:27;4.18;;;3.05;;
22705;SDS011;11520;51.198;4.468;2023-02-08T16:19:18;6.47;;;2.95;;
22705;SDS011;11520;51.198;4.468;2023-02-08T16:24:24;7.57;;;2.95;;
22705;SDS011;11520;51.198;4.468;2023-02-08T16:27:14;6.07;;;3.17;;
22705;SDS011;11520;51.198;4.468;2023-02-08T16:29:52;5.25;;;3.42;;
22705;SDS011;11520;51.198;4.468;2023-02-08T16:32:40;6.00;;;3.22;;
22705;SDS011;11520;51.198;4.468;2023-02-08T16:38:22;5.47;;;3.30;;
22705;SDS011;11520;51.198;4.468;2023-02-08T17:20:38;15.02;;;7.05;;
22705;SDS011;11520;51.198;4.468;2023-02-08T17:26:27;8.40;;;4.47;;
22705;SDS011;11520;51.198;4.468;2023-02-08T17:35:57;11.35;;;5.57;;
22705;SDS011;11520;51.198;4.468;2023-02-08T17:48:35;18.35;;;8.73;;
22705;SDS011;11520;51.198;4.468;2023-02-08T17:54:45;20.00;;;10.52;;
22705;SDS011;11520;51.198;4.468;2023-02-08T18:02:47;18.83;;;10.13;;
22705;SDS011;11520;51.198;4.468;2023-02-08T18:08:59;28.38;;;13.70;;
22705;SDS011;11520;51.198;4.468;2023-02-08T18:11:36;32.55;;;14.18;;
22705;SDS011;11520;51.198;4.468;2023-02-08T18:17:46;31.50;;;13.10;;
22705;SDS011;11520;51.198;4.468;2023-02-08T18:20:18;29.33;;;13.20;;
22705;SDS011;11520;51.198;4.468;2023-02-08T18:22:45;22.17;;;11.48;;
22705;SDS011;11520;51.198;4.468;2023-02-08T18:31:58;23.77;;;9.88;;
22705;SDS011;11520;51.198;4.468;2023-02-08T18:34:38;20.40;;;9.88;;
22705;SDS011;11520;51.198;4.468;2023-02-08T18:40:30;17.25;;;9.32;;
22705;SDS011;11520;51.198;4.468;2023-02-08T18:42:57;24.65;;;10.27;;
22705;SDS011;11520;51.198;4.468;2023-02-08T18:48:52;16.52;;;8.27;;
22705;SDS011;11520;51.198;4.468;2023-02-08T18:55:08;20.80;;;9.30;;
22705;SDS011;11520;51.198;4.468;2023-02-08T19:03:30;18.52;;;9.65;;
22705;SDS011;11520;51.198;4.468;2023-02-08T19:12:42;23.15;;;9.57;;
22705;SDS011;11520;51.198;4.468;2023-02-08T19:15:20;21.90;;;10.10;;
22705;SDS011;11520;51.198;4.468;2023-02-08T19:24:33;22.33;;;10.50;;
22705;SDS011;11520;51.198;4.468;2023-02-08T19:33:45;25.90;;;12.40;;
22705;SDS011;11520;51.198;4.468;2023-02-08T19:42:06;28.20;;;15.27;;
22705;SDS011;11520;51.198;4.468;2023-02-08T19:47:55;29.90;;;16.20;;
22705;SDS011;11520;51.198;4.468;2023-02-08T19:53:45;31.08;;;15.38;;
22705;SDS011;11520;51.198;4.468;2023-02-08T20:05:44;41.17;;;20.40;;
22705;SDS011;11520;51.198;4.468;2023-02-08T20:21:00;44.38;;;22.73;;
22705;SDS011;11520;51.198;4.468;2023-02-08T20:38:51;51.42;;;28.13;;
22705;SDS011;11520;51.198;4.468;2023-02-08T20:45:05;54.80;;;26.50;;
22705;SDS011;11520;51.198;4.468;2023-02-08T20:51:12;49.17;;;25.77;;
22705;SDS011;11520;51.198;4.468;2023-02-08T21:40:22;49.35;;;26.98;;
22705;SDS011;11520;51.198;4.468;2023-02-08T21:42:49;47.78;;;25.23;;
22705;SDS011;11520;51.198;4.468;2023-02-08T21:45:15;46.22;;;25.33;;
22705;SDS011;11520;51.198;4.468;2023-02-08T21:47:41;45.42;;;24.63;;
22705;SDS011;11520;51.198;4.468;2023-02-08T21:50:10;42.60;;;24.52;;
22705;SDS011;11520;51.198;4.468;2023-02-08T21:52:55;44.42;;;25.17;;
22705;SDS011;11520;51.198;4.468;2023-02-08T21:55:45;45.08;;;24.35;;
22705;SDS011;11520;51.198;4.468;2023-02-08T21:58:11;49.47;;;24.55;;
22705;SDS011;11520;51.198;4.468;2023-02-08T22:00:38;44.50;;;24.42;;
22705;SDS011;11520;51.198;4.468;2023-02-08T22:03:05;44.92;;;23.85;;
22705;SDS011;11520;51.198;4.468;2023-02-08T22:05:31;38.33;;;21.55;;
22705;SDS011;11520;51.198;4.468;2023-02-08T22:08:15;39.72;;;22.38;;
22705;SDS011;11520;51.198;4.468;2023-02-08T22:10:42;46.15;;;24.13;;
22705;SDS011;11520;51.198;4.468;2023-02-08T22:13:10;48.60;;;22.67;;
22705;SDS011;11520;51.198;4.468;2023-02-08T22:15:37;36.40;;;20.58;;
22705;SDS011;11520;51.198;4.468;2023-02-08T22:18:04;39.03;;;20.15;;
22705;SDS011;11520;51.198;4.468;2023-02-08T22:20:29;41.42;;;21.25;;
22705;SDS011;11520;51.198;4.468;2023-02-08T22:22:55;39.75;;;20.02;;
22705;SDS011;11520;51.198;4.468;2023-02-08T22:25:21;37.97;;;21.75;;
22705;SDS011;11520;51.198;4.468;2023-02-08T22:27:47;34.20;;;20.05;;
22705;SDS011;11520;51.198;4.468;2023-02-08T22:30:14;37.45;;;20.40;;
22705;SDS011;11520;51.198;4.468;2023-02-08T22:32:42;35.88;;;21.33;;
22705;SDS011;11520;51.198;4.468;2023-02-08T22:35:10;43.78;;;21.55;;
22705;SDS011;11520;51.198;4.468;2023-02-08T22:37:38;37.15;;;20.70;;
22705;SDS011;11520;51.198;4.468;2023-02-08T22:40:04;40.08;;;19.33;;
22705;SDS011;11520;51.198;4.468;2023-02-08T22:42:30;41.50;;;19.77;;
22705;SDS011;11520;51.198;4.468;2023-02-08T22:44:56;35.88;;;19.83;;
22705;SDS011;11520;51.198;4.468;2023-02-08T22:47:22;33.72;;;19.08;;
22705;SDS011;11520;51.198;4.468;2023-02-08T22:49:48;32.85;;;19.08;;
22705;SDS011;11520;51.198;4.468;2023-02-08T22:52:14;33.30;;;18.38;;
22705;SDS011;11520;51.198;4.468;2023-02-08T22:54:40;34.42;;;19.70;;
22705;SDS011;11520;51.198;4.468;2023-02-08T22:57:09;36.50;;;18.77;;
22705;SDS011;11520;51.198;4.468;2023-02-08T22:59:38;37.92;;;20.80;;
22705;SDS011;11520;51.198;4.468;2023-02-08T23:02:04;39.55;;;20.00;;
22705;SDS011;11520;51.198;4.468;2023-02-08T23:04:32;34.22;;;19.27;;
22705;SDS011;11520;51.198;4.468;2023-02-08T23:06:58;34.33;;;17.73;;
22705;SDS011;11520;51.198;4.468;2023-02-08T23:09:25;31.67;;;18.05;;
22705;SDS011;11520;51.198;4.468;2023-02-08T23:14:20;31.38;;;17.23;;
22705;SDS011;11520;51.198;4.468;2023-02-08T23:16:46;29.73;;;15.77;;
22705;SDS011;11520;51.198;4.468;2023-02-08T23:19:12;31.58;;;17.70;;
22705;SDS011;11520;51.198;4.468;2023-02-08T23:21:39;31.40;;;17.92;;
22705;SDS011;11520;51.198;4.468;2023-02-08T23:24:05;31.23;;;17.27;;
22705;SDS011;11520;51.198;4.468;2023-02-08T23:26:32;34.92;;;18.67;;
22705;SDS011;11520;51.198;4.468;2023-02-08T23:28:59;34.20;;;18.15;;
22705;SDS011;11520;51.198;4.468;2023-02-08T23:31:24;31.35;;;16.50;;
22705;SDS011;11520;51.198;4.468;2023-02-08T23:33:50;29.90;;;16.75;;
22705;SDS011;11520;51.198;4.468;2023-02-08T23:36:17;25.58;;;14.98;;
22705;SDS011;11520;51.198;4.468;2023-02-08T23:38:44;24.48;;;14.20;;
22705;SDS011;11520;51.198;4.468;2023-02-08T23:41:15;23.85;;;13.27;;
22705;SDS011;11520;51.198;4.468;2023-02-08T23:43:46;22.13;;;13.65;;
22705;SDS011;11520;51.198;4.468;2023-02-08T23:46:17;26.80;;;13.90;;
22705;SDS011;11520;51.198;4.468;2023-02-08T23:48:47;22.58;;;14.02;;
22705;SDS011;11520;51.198;4.468;2023-02-08T23:51:15;23.98;;;14.07;;
22705;SDS011;11520;51.198;4.468;2023-02-08T23:53:42;25.08;;;14.77;;
22705;SDS011;11520;51.198;4.468;2023-02-08T23:58:36;23.42;;;13.95;;
